Time;durP1;ratioP1;P1;durP2;ratioP2;P2;SDS_P1;SDS_P2;PMS_P1;PMS_P2;Temp;Humidity;BMP_temperature;BMP_pressure;BME280_temperature;BME280_humidity;BME280_pressure;Samples;Min_cycle;Max_cycle;Signal;HPM_P1;HPM_P2
2023/09/05 00:00:06;;;;;;;0.60;0.60;;;;;;;17.90;65.83;96090.97;4326505;33;20242;-68
2023/09/05 00:02:32;;;;;;;0.33;0.33;;;;;;;17.99;66.59;96083.69;4316539;33;20228;-67
2023/09/05 00:04:57;;;;;;;0.73;0.73;;;;;;;17.85;66.15;96083.91;4329983;32;20205;-67
2023/09/05 00:07:23;;;;;;;0.50;0.50;;;;;;;17.97;67.59;96080.53;4334593;32;20257;-68
2023/09/05 00:09:49;;;;;;;1.70;1.50;;;;;;;17.82;65.81;96085.31;4330078;32;20251;-67
2023/09/05 00:12:15;;;;;;;1.90;1.47;;;;;;;17.99;69.77;96078.31;4319415;33;20182;-67
2023/09/05 00:14:40;;;;;;;0.50;0.50;;;;;;;17.83;66.79;96081.53;4324776;33;20201;-67
2023/09/05 00:17:06;;;;;;;0.33;0.33;;;;;;;18.00;70.09;96080.69;4317686;33;20257;-68
2023/09/05 00:19:31;;;;;;;0.50;0.50;;;;;;;17.94;68.90;96073.91;4323440;32;20186;-68
2023/09/05 00:21:56;;;;;;;0.87;0.87;;;;;;;17.93;70.59;96077.69;4334974;32;20195;-67
2023/09/05 00:24:23;;;;;;;1.50;1.13;;;;;;;17.98;69.28;96074.84;4329903;33;20189;-67
2023/09/05 00:26:49;;;;;;;1.37;0.87;;;;;;;18.04;70.42;96064.72;4327939;33;20186;-68
2023/09/05 00:29:14;;;;;;;0.70;0.70;;;;;;;18.13;70.92;96068.13;4332285;32;20274;-67
2023/09/05 00:31:40;;;;;;;2.07;1.00;;;;;;;18.09;69.67;96067.19;4333891;32;20254;-68
2023/09/05 00:34:05;;;;;;;1.00;1.00;;;;;;;18.01;70.24;96066.16;4339592;32;20215;-68
2023/09/05 00:36:31;;;;;;;3.67;1.20;;;;;;;17.97;69.71;96067.09;4339025;32;20193;-67
2023/09/05 00:38:56;;;;;;;1.00;1.00;;;;;;;18.01;71.61;96065.34;4317301;33;20197;-68
2023/09/05 00:41:21;;;;;;;0.60;0.60;;;;;;;17.87;68.50;96070.16;4317850;33;20190;-67
2023/09/05 00:43:49;;;;;;;1.20;1.10;;;;;;;17.95;68.58;96062.06;4330056;33;20195;-67
2023/09/05 00:46:15;;;;;;;1.27;1.13;;;;;;;17.85;70.02;96063.22;4331594;32;20200;-67
2023/09/05 00:48:42;;;;;;;1.27;1.13;;;;;;;17.77;67.14;96055.97;4330844;32;20178;-67
2023/09/05 00:51:08;;;;;;;6.40;0.90;;;;;;;17.84;70.91;96055.47;4317848;33;20188;-67
2023/09/05 00:53:33;;;;;;;1.33;0.80;;;;;;;17.77;69.73;96057.84;4331140;33;20239;-67
2023/09/05 00:55:58;;;;;;;0.97;0.97;;;;;;;17.84;71.54;96060.84;4332647;33;20193;-67
2023/09/05 00:58:24;;;;;;;0.63;0.63;;;;;;;17.99;71.56;96062.19;4328297;33;20284;-67
2023/09/05 01:00:49;;;;;;;0.87;0.87;;;;;;;18.04;70.48;96059.34;4325049;33;20209;-68
2023/09/05 01:03:14;;;;;;;2.20;1.50;;;;;;;18.01;70.73;96058.09;4341294;32;20236;-67
2023/09/05 01:05:45;;;;;;;0.60;0.60;;;;;;;17.98;69.19;96061.41;4340021;33;20200;-67
2023/09/05 01:08:17;;;;;;;7.63;1.23;;;;;;;17.90;70.78;96062.22;4326847;33;20182;-67
2023/09/05 01:10:46;;;;;;;0.50;0.50;;;;;;;17.94;71.86;96060.47;4330387;33;20257;-67
2023/09/05 01:13:11;;;;;;;0.63;0.63;;;;;;;18.05;69.81;96053.66;4331866;33;20272;-67
2023/09/05 01:15:36;;;;;;;0.50;0.50;;;;;;;17.96;67.85;96057.47;4317581;33;20244;-67
2023/09/05 01:18:02;;;;;;;0.60;0.60;;;;;;;17.96;69.93;96050.19;4318814;33;20194;-67
2023/09/05 01:20:40;;;;;;;1.30;1.20;;;;;;;17.95;71.09;96061.25;4326197;33;20317;-67
2023/09/05 01:23:16;;;;;;;0.87;0.87;;;;;;;17.89;71.80;96051.81;4328507;32;20186;-67
2023/09/05 01:25:42;;;;;;;3.17;1.00;;;;;;;17.70;71.69;96052.97;4333082;32;20223;-67
2023/09/05 01:28:11;;;;;;;1.33;1.23;;;;;;;17.68;72.40;96051.72;4315116;33;20261;-67
2023/09/05 01:30:40;;;;;;;0.80;0.80;;;;;;;17.76;71.10;96043.66;4330753;33;20239;-67
2023/09/05 01:33:06;;;;;;;1.47;0.80;;;;;;;17.66;71.71;96044.00;4317965;33;20204;-68
2023/09/05 01:35:31;;;;;;;0.70;0.70;;;;;;;17.69;73.26;96051.41;4319722;32;20194;-67
2023/09/05 01:37:58;;;;;;;0.30;0.30;;;;;;;17.72;72.64;96045.37;4342265;32;20204;-67
2023/09/05 01:40:23;;;;;;;1.03;0.77;;;;;;;17.66;71.50;96044.00;4335889;32;20193;-67
2023/09/05 01:42:48;;;;;;;0.80;0.80;;;;;;;17.68;71.96;96044.44;4325255;33;20269;-67
2023/09/05 01:45:14;;;;;;;0.87;0.87;;;;;;;17.93;73.70;96031.25;4332562;33;20178;-67
2023/09/05 01:47:39;;;;;;;0.80;0.80;;;;;;;17.88;73.39;96024.16;4328260;33;20242;-67
2023/09/05 01:50:05;;;;;;;0.67;0.67;;;;;;;17.78;72.85;96028.00;4328896;33;20188;-67
2023/09/05 01:52:30;;;;;;;0.87;0.87;;;;;;;17.91;73.94;96028.09;4327980;33;20186;-67
2023/09/05 01:54:55;;;;;;;0.80;0.80;;;;;;;17.82;73.15;96022.78;4329191;32;20182;-68
2023/09/05 01:57:20;;;;;;;1.43;1.07;;;;;;;17.90;73.74;96021.16;4326962;33;20289;-67
2023/09/05 01:59:46;;;;;;;1.13;1.13;;;;;;;17.88;73.50;96024.16;4332451;32;20181;-68
2023/09/05 02:02:11;;;;;;;6.20;1.13;;;;;;;17.91;73.40;96025.41;4328069;33;20190;-67
2023/09/05 02:04:36;;;;;;;0.40;0.40;;;;;;;17.79;73.87;96021.53;4343790;32;20204;-67
2023/09/05 02:07:02;;;;;;;0.53;0.53;;;;;;;17.83;73.55;96022.47;4319298;33;20194;-67
2023/09/05 02:09:27;;;;;;;1.00;1.00;;;;;;;17.68;73.00;96036.41;4323059;32;20194;-67
2023/09/05 02:11:52;;;;;;;1.63;1.53;;;;;;;17.85;74.55;96031.00;4322938;33;20182;-67
2023/09/05 02:14:18;;;;;;;1.03;1.03;;;;;;;17.71;74.75;96029.59;4330624;33;20216;-68
2023/09/05 02:16:43;;;;;;;0.80;0.80;;;;;;;17.76;75.41;96026.75;4317795;33;20198;-67
2023/09/05 02:19:09;;;;;;;1.07;1.07;;;;;;;17.67;75.11;96032.13;4327087;32;20194;-67
2023/09/05 02:21:34;;;;;;;0.60;0.60;;;;;;;17.76;75.93;96032.91;4316022;33;20237;-67
2023/09/05 02:23:59;;;;;;;0.57;0.57;;;;;;;17.70;74.91;96031.50;4312338;33;20242;-67
2023/09/05 02:26:24;;;;;;;0.90;0.90;;;;;;;17.79;73.49;96037.63;4314293;33;20201;-67
2023/09/05 02:28:50;;;;;;;1.20;1.10;;;;;;;17.63;73.33;96036.56;4302570;33;20216;-67
2023/09/05 02:31:15;;;;;;;0.77;0.77;;;;;;;17.38;73.81;96029.34;4307332;33;20186;-67
2023/09/05 02:33:40;;;;;;;1.03;0.87;;;;;;;17.39;75.76;96036.31;4309072;33;20186;-67
2023/09/05 02:36:07;;;;;;;1.70;0.80;;;;;;;17.50;75.66;96024.09;4312641;33;20199;-67
2023/09/05 02:38:33;;;;;;;0.37;0.37;;;;;;;17.65;74.74;96028.22;4314600;33;20182;-68
2023/09/05 02:40:58;;;;;;;0.70;0.70;;;;;;;17.59;76.03;96024.88;4314728;32;20220;-68
2023/09/05 02:43:23;;;;;;;0.90;0.70;;;;;;;17.59;75.06;96032.16;4311972;33;20230;-68
2023/09/05 02:45:52;;;;;;;0.27;0.27;;;;;;;17.55;75.43;96029.31;4314406;33;20197;-68
2023/09/05 02:48:17;;;;;;;0.30;0.30;;;;;;;17.56;76.32;96019.38;4315676;33;20185;-68
2023/09/05 02:50:43;;;;;;;0.93;0.93;;;;;;;17.46;75.36;96036.59;4328642;32;20220;-67
2023/09/05 02:53:08;;;;;;;0.90;0.90;;;;;;;17.44;75.43;96026.19;4324523;32;20261;-68
2023/09/05 02:55:34;;;;;;;0.60;0.60;;;;;;;17.41;75.28;96026.03;4326350;33;20308;-68
2023/09/05 02:58:00;;;;;;;0.60;0.60;;;;;;;17.37;76.13;96030.47;4326286;32;20205;-68
2023/09/05 03:00:25;;;;;;;0.80;0.80;;;;;;;17.39;76.58;96030.94;4312647;33;20244;-68
2023/09/05 03:02:52;;;;;;;0.63;0.63;;;;;;;17.40;76.84;96024.47;4314586;33;20186;-68
2023/09/05 03:05:18;;;;;;;0.63;0.63;;;;;;;17.41;75.46;96029.50;4335918;32;20249;-68
2023/09/05 03:07:45;;;;;;;2.40;1.33;;;;;;;17.46;77.14;96023.94;4329158;32;20181;-67
2023/09/05 03:10:10;;;;;;;0.50;0.50;;;;;;;17.51;76.83;96029.16;4330374;32;20204;-68
2023/09/05 03:12:35;;;;;;;0.90;0.90;;;;;;;17.29;75.00;96033.94;4313325;32;20198;-67
2023/09/05 03:15:01;;;;;;;1.40;1.30;;;;;;;17.24;75.64;96028.75;4311563;33;20200;-67
2023/09/05 03:17:26;;;;;;;1.63;1.53;;;;;;;17.24;77.62;96031.44;4311436;33;20224;-67
2023/09/05 03:19:52;;;;;;;1.23;1.23;;;;;;;17.39;78.22;96028.25;4327462;33;20250;-67
2023/09/05 03:22:17;;;;;;;0.40;0.40;;;;;;;17.40;78.44;96035.97;4314894;33;20201;-68
2023/09/05 03:24:42;;;;;;;1.70;0.73;;;;;;;17.41;77.37;96032.19;4305560;33;20257;-67
2023/09/05 03:27:07;;;;;;;3.07;1.47;;;;;;;17.57;77.33;96032.47;4336282;32;20253;-68
2023/09/05 03:29:33;;;;;;;3.20;0.97;;;;;;;17.44;76.97;96036.13;4305275;33;20197;-67
2023/09/05 03:31:58;;;;;;;1.20;1.10;;;;;;;17.61;77.70;96033.41;4313760;33;20186;-67
2023/09/05 03:34:24;;;;;;;1.70;1.60;;;;;;;17.53;77.38;96029.63;4319515;32;20335;-67
2023/09/05 03:36:49;;;;;;;1.10;1.10;;;;;;;17.67;77.45;96023.28;4321435;32;20200;-67
2023/09/05 03:39:15;;;;;;;0.73;0.73;;;;;;;17.50;76.72;96032.16;4319272;33;20215;-68
2023/09/05 03:41:40;;;;;;;0.43;0.43;;;;;;;17.43;76.97;96037.25;4310951;33;20177;-68
2023/09/05 03:44:06;;;;;;;1.07;1.07;;;;;;;17.33;76.96;96038.34;4319814;32;20182;-68
2023/09/05 03:46:31;;;;;;;7.83;1.80;;;;;;;17.40;77.34;96040.56;4318848;33;20182;-68
2023/09/05 03:48:57;;;;;;;1.00;1.00;;;;;;;17.39;78.48;96038.97;4329336;32;20206;-68
2023/09/05 03:51:23;;;;;;;1.47;1.03;;;;;;;17.36;78.71;96034.25;4325161;32;20186;-67
2023/09/05 03:53:49;;;;;;;2.10;1.13;;;;;;;17.33;77.50;96037.56;4327445;32;20174;-67
2023/09/05 03:56:15;;;;;;;0.93;0.93;;;;;;;17.25;77.29;96038.37;4318395;33;20181;-67
2023/09/05 03:58:40;;;;;;;0.90;0.90;;;;;;;17.30;78.19;96035.50;4323978;32;20232;-68
2023/09/05 04:01:13;;;;;;;1.13;1.10;;;;;;;17.32;78.23;96020.69;4320533;33;20260;-68
2023/09/05 04:03:38;;;;;;;1.07;0.93;;;;;;;17.26;78.09;96034.56;4328046;32;20225;-68
2023/09/05 04:06:03;;;;;;;0.47;0.47;;;;;;;17.32;78.60;96027.94;4323042;32;20181;-68
2023/09/05 04:08:28;;;;;;;1.87;1.00;;;;;;;17.23;77.56;96029.87;4317363;33;20278;-68
2023/09/05 04:10:59;;;;;;;1.47;1.37;;;;;;;17.39;78.32;96025.56;4319471;33;20359;-68
2023/09/05 04:13:25;;;;;;;1.70;0.90;;;;;;;17.29;78.02;96033.94;4307881;33;20221;-68
2023/09/05 04:15:50;;;;;;;1.53;1.20;;;;;;;17.29;77.65;96024.00;4319224;32;20216;-67
2023/09/05 04:18:16;;;;;;;0.90;0.90;;;;;;;17.29;77.35;96033.94;4337196;32;20189;-67
2023/09/05 04:20:41;;;;;;;0.83;0.83;;;;;;;17.00;75.84;96035.41;4323398;32;20237;-67
2023/09/05 04:23:06;;;;;;;1.33;1.33;;;;;;;17.04;76.16;96028.28;4326213;33;20293;-67
2023/09/05 04:25:32;;;;;;;1.30;1.30;;;;;;;17.03;77.99;96037.47;4329635;33;20212;-67
2023/09/05 04:27:58;;;;;;;1.30;1.20;;;;;;;17.00;77.02;96035.41;4326256;32;20241;-67
2023/09/05 04:30:23;;;;;;;1.40;1.37;;;;;;;16.99;78.61;96041.88;4337479;32;20192;-67
2023/09/05 04:32:48;;;;;;;4.13;1.10;;;;;;;16.81;77.84;96029.56;4340516;32;20228;-68
2023/09/05 04:35:14;;;;;;;0.47;0.47;;;;;;;16.85;77.81;96041.22;4328819;32;20189;-67
2023/09/05 04:37:39;;;;;;;0.50;0.50;;;;;;;16.95;79.14;96038.22;4323062;33;20204;-67
2023/09/05 04:40:07;;;;;;;1.33;1.33;;;;;;;17.10;79.42;96037.75;4316897;33;20232;-67
2023/09/05 04:42:32;;;;;;;2.83;0.90;;;;;;;17.04;79.67;96049.72;4318282;33;20187;-67
2023/09/05 04:44:58;;;;;;;2.23;1.07;;;;;;;17.05;80.13;96051.31;4332471;32;20194;-67
2023/09/05 04:47:28;;;;;;;0.90;0.90;;;;;;;17.17;80.03;96053.37;4321958;32;20190;-67
2023/09/05 04:49:56;;;;;;;1.50;1.40;;;;;;;16.94;78.98;96063.47;4325679;33;20185;-67
2023/09/05 04:52:23;;;;;;;1.20;1.13;;;;;;;17.06;79.02;96063.59;4321876;32;20205;-67
2023/09/05 04:54:49;;;;;;;1.20;1.17;;;;;;;17.01;78.87;96058.44;4324538;33;20209;-67
2023/09/05 04:57:16;;;;;;;1.57;1.43;;;;;;;16.88;79.24;96059.34;4324323;33;20216;-67
2023/09/05 04:59:46;;;;;;;0.57;0.57;;;;;;;16.93;80.23;96058.41;4329686;32;20208;-68
2023/09/05 05:02:11;;;;;;;4.27;1.00;;;;;;;17.10;80.38;96059.19;4328744;32;20233;-67
2023/09/05 05:04:37;;;;;;;0.60;0.60;;;;;;;17.02;80.16;96065.38;4325236;32;20190;-67
2023/09/05 05:07:03;;;;;;;1.17;0.80;;;;;;;16.99;79.50;96057.94;4314172;33;20190;-67
2023/09/05 05:09:28;;;;;;;0.97;0.90;;;;;;;17.10;79.55;96059.19;4334568;32;20178;-67
2023/09/05 05:11:55;;;;;;;0.73;0.73;;;;;;;16.73;80.61;96062.50;4329136;32;20182;-67
2023/09/05 05:14:20;;;;;;;0.80;0.80;;;;;;;16.94;80.48;96060.00;4339959;32;20259;-67
2023/09/05 05:16:46;;;;;;;1.50;1.40;;;;;;;16.84;79.55;96066.44;4332884;33;20186;-67
2023/09/05 05:19:11;;;;;;;0.90;0.90;;;;;;;16.99;80.15;96065.22;4326588;32;20248;-67
2023/09/05 05:21:38;;;;;;;1.17;1.10;;;;;;;17.04;78.99;96060.44;4321970;33;20314;-68
2023/09/05 05:24:07;;;;;;;0.50;0.50;;;;;;;17.17;80.33;96062.19;4341500;32;20193;-67
2023/09/05 05:26:32;;;;;;;0.80;0.80;;;;;;;17.07;79.59;96072.44;4331750;33;20219;-67
2023/09/05 05:28:58;;;;;;;0.70;0.70;;;;;;;17.15;79.86;96072.44;4338147;32;20181;-67
2023/09/05 05:31:24;;;;;;;0.90;0.90;;;;;;;17.10;80.23;96069.94;4337670;32;20261;-68
2023/09/05 05:33:49;;;;;;;0.87;0.87;;;;;;;17.30;79.96;96073.06;4332929;32;20285;-67
2023/09/05 05:36:14;;;;;;;1.20;1.10;;;;;;;17.14;78.13;96065.50;4331428;32;20295;-68
2023/09/05 05:38:40;;;;;;;0.93;0.90;;;;;;;16.99;79.52;96073.25;4330812;33;20192;-68
2023/09/05 05:41:09;;;;;;;6.23;1.43;;;;;;;16.89;79.59;96060.94;4322073;33;20243;-68
2023/09/05 05:43:34;;;;;;;1.53;1.33;;;;;;;17.13;80.37;96063.16;4327971;33;20174;-68
2023/09/05 05:46:00;;;;;;;5.20;1.00;;;;;;;17.16;80.74;96071.34;4317644;33;20182;-68
2023/09/05 05:48:25;;;;;;;2.47;1.03;;;;;;;17.21;79.64;96066.94;4328781;32;20232;-67
2023/09/05 05:50:51;;;;;;;5.27;1.83;;;;;;;17.04;79.47;96065.81;4328497;32;20190;-67
2023/09/05 05:53:17;;;;;;;1.13;1.07;;;;;;;17.06;80.50;96068.19;4329649;32;20302;-67
2023/09/05 05:55:42;;;;;;;2.03;1.40;;;;;;;16.98;77.79;96069.78;4335516;32;20182;-67
2023/09/05 05:58:08;;;;;;;3.47;1.47;;;;;;;17.01;80.76;96077.19;4330475;32;23926;-67
2023/09/05 06:00:33;;;;;;;1.30;1.20;;;;;;;16.89;79.57;96070.88;4329046;33;20221;-67
2023/09/05 06:02:58;;;;;;;3.43;1.93;;;;;;;16.82;78.95;96074.03;4322664;32;20263;-68
2023/09/05 06:05:24;;;;;;;1.00;1.00;;;;;;;16.76;80.90;96075.28;4326160;32;20212;-67
2023/09/05 06:07:49;;;;;;;3.00;1.80;;;;;;;16.52;79.15;96083.72;4327768;32;20292;-68
2023/09/05 06:10:15;;;;;;;1.10;1.10;;;;;;;16.45;80.41;96086.84;4321241;32;20174;-69
2023/09/05 06:12:41;;;;;;;1.00;1.00;;;;;;;16.44;80.88;96085.25;4318522;33;20197;-69
2023/09/05 06:15:06;;;;;;;0.73;0.73;;;;;;;16.64;81.16;96083.91;4328737;33;20213;-68
2023/09/05 06:17:32;;;;;;;0.80;0.80;;;;;;;16.57;80.12;96091.59;4310902;33;20186;-68
2023/09/05 06:19:57;;;;;;;0.63;0.63;;;;;;;16.59;80.73;96084.06;4316385;33;20251;-68
2023/09/05 06:22:22;;;;;;;1.03;1.03;;;;;;;16.73;78.90;96081.25;4311456;33;20209;-68
2023/09/05 06:24:48;;;;;;;0.80;0.80;;;;;;;16.71;78.81;96084.25;4313163;33;20194;-68
2023/09/05 06:27:13;;;;;;;1.40;1.30;;;;;;;16.66;78.61;96086.28;4324149;33;20185;-68
2023/09/05 06:29:38;;;;;;;1.10;1.10;;;;;;;16.52;79.98;96078.34;4323759;33;20260;-68
2023/09/05 06:32:04;;;;;;;0.80;0.80;;;;;;;16.59;79.69;96083.25;4326943;33;20193;-68
2023/09/05 06:34:31;;;;;;;0.33;0.33;;;;;;;16.64;79.58;96077.75;4312848;33;20222;-68
2023/09/05 06:36:56;;;;;;;0.70;0.70;;;;;;;16.64;79.67;96078.56;4312137;33;20209;-68
2023/09/05 06:39:21;;;;;;;1.43;1.23;;;;;;;16.71;78.72;96075.41;4318670;33;20182;-68
2023/09/05 06:41:47;;;;;;;0.93;0.93;;;;;;;16.64;78.98;96075.09;4323390;33;20208;-68
2023/09/05 06:44:12;;;;;;;1.20;0.80;;;;;;;16.45;79.65;96073.44;4307771;33;20276;-68
2023/09/05 06:46:37;;;;;;;0.80;0.80;;;;;;;16.46;80.04;96077.72;4317907;33;20194;-68
2023/09/05 06:49:02;;;;;;;1.37;1.27;;;;;;;16.48;80.03;96070.16;4319513;33;20182;-67
2023/09/05 06:51:31;;;;;;;1.60;1.50;;;;;;;16.61;80.07;96067.66;4296836;33;20179;-68
2023/09/05 06:53:58;;;;;;;1.50;1.07;;;;;;;16.72;79.89;96071.62;4310181;33;20178;-68
2023/09/05 06:56:24;;;;;;;1.10;1.10;;;;;;;16.76;79.86;96075.28;4307861;33;20174;-68
2023/09/05 06:58:49;;;;;;;1.07;0.60;;;;;;;16.89;79.03;96074.34;4318106;33;20252;-68
2023/09/05 07:01:15;;;;;;;0.80;0.80;;;;;;;16.88;79.16;96070.06;4315325;33;20182;-68
2023/09/05 07:03:40;;;;;;;1.13;1.13;;;;;;;16.95;78.15;96070.41;4315562;33;20182;-68
2023/09/05 07:06:05;;;;;;;1.47;1.40;;;;;;;17.06;78.21;96074.34;4318540;33;20190;-68
2023/09/05 07:08:31;;;;;;;2.37;2.27;;;;;;;17.01;78.75;96071.03;4313421;33;20229;-68
2023/09/05 07:10:57;;;;;;;1.90;1.80;;;;;;;17.11;77.49;96074.19;4316420;32;20193;-68
2023/09/05 07:13:22;;;;;;;2.43;1.77;;;;;;;17.13;77.75;96071.97;4316816;33;20200;-67
2023/09/05 07:15:48;;;;;;;9.57;8.53;;;;;;;17.11;77.71;96071.50;4325507;33;20225;-68
2023/09/05 07:18:13;;;;;;;2.60;2.50;;;;;;;17.28;76.71;96072.59;4323457;32;20190;-68
2023/09/05 07:20:39;;;;;;;1.73;1.63;;;;;;;17.21;76.51;96083.03;4329469;33;20299;-68
2023/09/05 07:23:04;;;;;;;25.80;13.30;;;;;;;17.27;76.33;96079.84;4328219;33;20236;-68
2023/09/05 07:25:29;;;;;;;4.57;3.73;;;;;;;17.33;76.45;96077.78;4328852;33;20193;-68
2023/09/05 07:27:55;;;;;;;2.23;2.13;;;;;;;17.41;76.18;96085.06;4338187;32;20229;-68
2023/09/05 07:30:20;;;;;;;2.37;2.20;;;;;;;17.45;76.08;96077.97;4340597;32;20229;-68
2023/09/05 07:32:45;;;;;;;3.33;3.10;;;;;;;17.44;76.34;96074.50;4335958;32;20182;-68
2023/09/05 07:35:11;;;;;;;2.77;2.50;;;;;;;17.52;76.15;96079.03;4332409;33;20196;-68
2023/09/05 07:37:39;;;;;;;1.00;1.00;;;;;;;17.57;76.36;96069.25;4332059;33;20182;-68
2023/09/05 07:40:08;;;;;;;0.83;0.83;;;;;;;17.66;76.00;96070.84;4328006;33;20213;-68
2023/09/05 07:42:33;;;;;;;1.17;1.17;;;;;;;17.80;75.77;96071.44;4310971;33;20245;-68
2023/09/05 07:45:02;;;;;;;0.70;0.70;;;;;;;17.89;75.33;96076.75;4326361;33;20210;-68
2023/09/05 07:47:27;;;;;;;1.23;1.23;;;;;;;17.94;75.06;96076.59;4323226;33;20224;-68
2023/09/05 07:49:52;;;;;;;1.40;1.00;;;;;;;17.95;75.38;96072.00;4322289;32;20241;-68
2023/09/05 07:52:17;;;;;;;1.57;1.20;;;;;;;17.98;74.42;96071.38;4319089;33;20197;-68
2023/09/05 07:54:43;;;;;;;0.40;0.40;;;;;;;17.93;75.23;96075.00;4327472;32;20239;-68
2023/09/05 07:57:08;;;;;;;1.03;1.03;;;;;;;18.13;73.25;96068.94;4320547;33;20261;-68
2023/09/05 07:59:34;;;;;;;0.97;0.97;;;;;;;18.21;72.34;96078.06;4320613;33;20208;-68
2023/09/05 08:02:00;;;;;;;0.50;0.50;;;;;;;18.27;72.34;96074.09;4337906;32;20192;-68
2023/09/05 08:04:26;;;;;;;1.03;0.97;;;;;;;18.22;72.25;96065.44;4337562;32;20218;-68
2023/09/05 08:06:51;;;;;;;3.60;1.33;;;;;;;18.32;71.69;96071.22;4324026;32;20178;-67
2023/09/05 08:09:16;;;;;;;0.60;0.60;;;;;;;18.37;71.35;96071.03;4323384;33;20272;-67
2023/09/05 08:11:42;;;;;;;0.73;0.73;;;;;;;18.41;71.53;96066.59;4325748;33;20284;-68
2023/09/05 08:14:07;;;;;;;0.67;0.67;;;;;;;18.46;71.52;96063.72;4327904;32;20181;-68
2023/09/05 08:16:34;;;;;;;1.50;0.87;;;;;;;18.48;71.97;96066.09;4336696;32;20201;-68
2023/09/05 08:19:00;;;;;;;0.60;0.60;;;;;;;18.52;71.43;96075.84;4328994;32;20182;-68
2023/09/05 08:21:26;;;;;;;1.03;0.80;;;;;;;18.62;71.14;96074.72;4328601;33;20228;-68
2023/09/05 08:23:52;;;;;;;0.60;0.60;;;;;;;18.66;70.80;96064.09;4342201;32;20217;-68
2023/09/05 08:26:18;;;;;;;0.70;0.70;;;;;;;18.75;70.53;96076.37;4329670;33;20273;-68
2023/09/05 08:28:45;;;;;;;1.03;1.03;;;;;;;18.83;70.20;96070.16;4319006;33;20178;-68
2023/09/05 08:31:11;;;;;;;0.50;0.50;;;;;;;18.90;69.68;96066.94;4320004;33;20196;-68
2023/09/05 08:33:37;;;;;;;0.60;0.60;;;;;;;18.99;69.09;96075.72;4330569;33;20218;-67
2023/09/05 08:36:05;;;;;;;1.43;1.30;;;;;;;19.05;68.79;96070.94;4328488;33;20181;-68
2023/09/05 08:38:30;;;;;;;1.33;0.80;;;;;;;19.01;69.53;96072.72;4325600;32;20243;-68
2023/09/05 08:41:00;;;;;;;1.13;0.77;;;;;;;19.07;68.39;96069.50;4321556;32;20321;-67
2023/09/05 08:43:26;;;;;;;0.80;0.80;;;;;;;19.15;67.71;96060.56;4327183;32;20279;-67
2023/09/05 08:45:54;;;;;;;1.17;1.17;;;;;;;19.05;68.72;96057.50;4326365;32;20186;-68
2023/09/05 08:48:20;;;;;;;1.03;1.03;;;;;;;19.18;67.77;96065.28;4324302;32;20209;-68
2023/09/05 08:50:45;;;;;;;0.73;0.73;;;;;;;19.28;67.41;96063.31;4337110;32;20200;-68
2023/09/05 08:53:15;;;;;;;0.73;0.73;;;;;;;19.36;66.62;96065.91;4325481;32;20193;-68
2023/09/05 08:55:41;;;;;;;1.27;1.17;;;;;;;19.35;66.75;96068.94;4328576;32;20190;-68
2023/09/05 08:58:14;;;;;;;2.20;2.10;;;;;;;19.40;66.35;96055.28;4328136;33;20276;-68
2023/09/05 09:00:39;;;;;;;1.33;1.33;;;;;;;19.43;66.71;96065.38;4321686;33;20344;-68
2023/09/05 09:03:06;;;;;;;1.30;1.30;;;;;;;19.45;66.73;96055.06;4331204;33;20190;-68
2023/09/05 09:05:32;;;;;;;0.90;0.90;;;;;;;19.36;67.44;96055.16;4331587;33;20212;-68
2023/09/05 09:07:57;;;;;;;1.57;1.47;;;;;;;19.59;65.87;96057.50;4331791;33;20177;-68
2023/09/05 09:10:23;;;;;;;5.17;0.80;;;;;;;19.66;65.82;96058.53;4325918;33;20201;-68
2023/09/05 09:12:52;;;;;;;1.03;1.03;;;;;;;19.64;65.94;96055.38;4329918;33;20189;-68
2023/09/05 09:15:17;;;;;;;1.27;1.07;;;;;;;19.73;65.79;96048.00;4309484;33;20194;-68
2023/09/05 09:17:47;;;;;;;0.60;0.60;;;;;;;19.78;66.15;96047.00;4316275;33;20199;-68
2023/09/05 09:20:13;;;;;;;1.13;0.97;;;;;;;19.72;66.30;96045.66;4327275;33;20186;-68
2023/09/05 09:22:39;;;;;;;0.70;0.70;;;;;;;19.84;65.37;96049.12;4327909;33;20194;-68
2023/09/05 09:25:20;;;;;;;1.17;1.10;;;;;;;19.88;65.75;96055.44;4316819;33;20216;-68
2023/09/05 09:27:50;;;;;;;1.63;1.53;;;;;;;20.05;64.80;96046.38;4325714;33;20198;-67
2023/09/05 09:30:20;;;;;;;1.93;1.83;;;;;;;20.03;65.03;96051.28;4316863;33;20212;-68
2023/09/05 09:32:50;;;;;;;1.30;1.20;;;;;;;20.05;65.55;96049.06;4316441;33;20186;-68
2023/09/05 09:35:15;;;;;;;1.33;1.23;;;;;;;20.12;64.61;96051.19;4322359;33;20178;-68
2023/09/05 09:37:41;;;;;;;1.30;1.20;;;;;;;20.04;65.74;96041.31;4315777;33;20297;-68
2023/09/05 09:40:06;;;;;;;1.30;1.30;;;;;;;20.04;66.26;96039.41;4315233;33;20210;-67
2023/09/05 09:42:33;;;;;;;0.90;0.90;;;;;;;20.25;65.39;96042.78;4316736;33;20225;-67
2023/09/05 09:44:59;;;;;;;1.03;1.03;;;;;;;20.25;65.36;96033.91;4316590;33;20186;-67
2023/09/05 09:47:28;;;;;;;0.70;0.70;;;;;;;20.29;66.07;96037.50;4327335;32;20169;-67
2023/09/05 09:49:53;;;;;;;0.80;0.80;;;;;;;20.31;65.82;96032.56;4325188;33;20186;-68
2023/09/05 09:52:20;;;;;;;1.90;1.80;;;;;;;20.39;65.72;96031.66;4327818;33;20197;-68
2023/09/05 09:54:46;;;;;;;1.13;1.13;;;;;;;20.46;65.33;96031.13;4316945;33;20200;-68
2023/09/05 09:57:21;;;;;;;1.13;0.97;;;;;;;20.50;65.66;96032.81;4319664;33;20200;-67
2023/09/05 09:59:58;;;;;;;2.00;1.60;;;;;;;20.63;64.80;96028.16;4318234;33;20186;-68
2023/09/05 10:02:24;;;;;;;1.57;0.90;;;;;;;20.65;65.01;96027.81;4317397;32;20193;-67
2023/09/05 10:04:51;;;;;;;3.90;1.83;;;;;;;20.67;64.85;96023.66;4318936;33;20212;-68
2023/09/05 10:07:18;;;;;;;0.80;0.80;;;;;;;20.71;64.64;96016.47;4320782;33;20186;-68
2023/09/05 10:09:45;;;;;;;0.93;0.77;;;;;;;20.71;64.76;96016.47;4325965;33;20194;-67
2023/09/05 10:12:11;;;;;;;1.00;1.00;;;;;;;20.84;64.19;96012.59;4302003;33;20226;-67
2023/09/05 10:14:38;;;;;;;0.20;0.20;;;;;;;20.95;63.63;96017.53;4318438;33;20241;-67
2023/09/05 10:17:04;;;;;;;0.60;0.60;;;;;;;20.99;63.39;96010.34;4316907;33;20202;-67
2023/09/05 10:19:30;;;;;;;10.47;9.27;;;;;;;21.03;63.46;96022.00;4329616;33;20212;-68
2023/09/05 10:21:58;;;;;;;2.43;2.13;;;;;;;21.00;63.11;96017.28;4321060;33;20224;-67
2023/09/05 10:24:30;;;;;;;5.70;5.30;;;;;;;21.10;62.34;96014.87;4330042;33;20204;-68
2023/09/05 10:26:56;;;;;;;0.97;0.97;;;;;;;21.15;62.52;96008.47;4329845;33;20192;-68
2023/09/05 10:29:41;;;;;;;0.80;0.80;;;;;;;21.29;61.48;96016.19;4318749;33;20185;-67
2023/09/05 10:32:06;;;;;;;2.83;1.40;;;;;;;21.26;61.37;96012.25;4327860;33;20234;-67
2023/09/05 10:34:47;;;;;;;0.60;0.60;;;;;;;21.19;62.74;96007.44;4317580;33;20220;-68
2023/09/05 10:37:18;;;;;;;0.40;0.40;;;;;;;21.37;61.13;95999.84;4318778;33;20204;-67
2023/09/05 10:39:45;;;;;;;0.80;0.80;;;;;;;21.48;58.27;95997.41;4328132;33;20216;-68
2023/09/05 10:42:14;;;;;;;0.83;0.83;;;;;;;21.51;58.61;95999.44;4318953;33;20198;-67
2023/09/05 10:44:46;;;;;;;0.50;0.50;;;;;;;21.56;57.31;95991.06;4318511;33;20277;-67
2023/09/05 10:47:33;;;;;;;0.60;0.60;;;;;;;21.54;58.20;95987.94;4329356;33;20186;-68
2023/09/05 10:49:59;;;;;;;0.50;0.50;;;;;;;21.53;58.46;95981.75;4318032;33;20190;-67
2023/09/05 10:52:27;;;;;;;0.50;0.50;;;;;;;21.74;57.25;95981.50;4316836;33;20194;-67
2023/09/05 10:54:53;;;;;;;2.10;2.00;;;;;;;21.65;58.47;95986.28;4318054;33;20194;-68
2023/09/05 10:57:36;;;;;;;2.67;0.80;;;;;;;21.58;58.69;95986.13;4318607;33;20182;-67
2023/09/05 11:00:28;;;;;;;0.60;0.60;;;;;;;21.65;58.58;95991.69;4318146;33;20237;-68
2023/09/05 11:02:56;;;;;;;0.43;0.43;;;;;;;21.71;58.97;95997.63;4316107;33;20241;-67
2023/09/05 11:05:26;;;;;;;0.67;0.67;;;;;;;21.83;57.73;95989.41;4318102;33;20186;-67
2023/09/05 11:07:55;;;;;;;0.90;0.90;;;;;;;21.85;57.39;95984.44;4317422;33;20178;-67
2023/09/05 11:10:32;;;;;;;0.33;0.33;;;;;;;21.84;57.33;95977.47;4328678;33;20235;-68
2023/09/05 11:13:08;;;;;;;0.30;0.30;;;;;;;21.86;57.65;95973.28;4316825;33;20216;-67
2023/09/05 11:15:36;;;;;;;0.33;0.33;;;;;;;22.04;56.00;95975.66;4326831;33;20233;-67
2023/09/05 11:18:06;;;;;;;4.70;1.07;;;;;;;21.98;56.31;95969.72;4316972;33;20182;-67
2023/09/05 11:20:48;;;;;;;0.30;0.30;;;;;;;22.11;54.63;95965.81;4316861;33;20273;-67
2023/09/05 11:23:13;;;;;;;1.33;0.80;;;;;;;22.13;54.83;95963.53;4329301;33;20178;-67
2023/09/05 11:25:47;;;;;;;0.90;0.90;;;;;;;22.22;54.51;95963.38;4317443;33;20388;-67
2023/09/05 11:28:14;;;;;;;0.40;0.40;;;;;;;22.24;54.42;95969.97;4323336;33;20178;-67
2023/09/05 11:30:40;;;;;;;0.70;0.70;;;;;;;22.16;54.33;95959.34;4316933;33;20186;-67